sensor_id;sensor_type;location;lat;lon;timestamp;P1;durP1;ratioP1;P2;durP2;ratioP2
3745;SDS011;1888;49.890;10.884;2022-08-01T04:16:49;8.80;;;8.70;;
3745;SDS011;1888;49.890;10.884;2022-08-01T04:19:16;8.50;;;8.40;;
3745;SDS011;1888;49.890;10.884;2022-08-01T04:21:44;9.30;;;9.20;;
3745;SDS011;1888;49.890;10.884;2022-08-01T04:24:12;9.17;;;9.07;;
3745;SDS011;1888;49.890;10.884;2022-08-01T04:26:41;8.83;;;8.73;;
3745;SDS011;1888;49.890;10.884;2022-08-01T04:29:11;8.87;;;8.77;;
3745;SDS011;1888;49.890;10.884;2022-08-01T04:31:39;8.50;;;8.40;;
3745;SDS011;1888;49.890;10.884;2022-08-01T04:34:10;8.10;;;8.00;;
3745;SDS011;1888;49.890;10.884;2022-08-01T04:36:39;8.17;;;8.07;;
3745;SDS011;1888;49.890;10.884;2022-08-01T04:39:07;8.70;;;8.60;;
3745;SDS011;1888;49.890;10.884;2022-08-01T04:41:36;8.40;;;8.30;;
3745;SDS011;1888;49.890;10.884;2022-08-01T04:44:03;8.53;;;8.43;;
3745;SDS011;1888;49.890;10.884;2022-08-01T04:46:31;8.70;;;8.60;;
3745;SDS011;1888;49.890;10.884;2022-08-01T04:49:02;9.17;;;9.07;;
3745;SDS011;1888;49.890;10.884;2022-08-01T04:51:31;8.90;;;8.80;;
3745;SDS011;1888;49.890;10.884;2022-08-01T04:53:58;9.00;;;8.90;;
3745;SDS011;1888;49.890;10.884;2022-08-01T04:56:26;9.10;;;9.00;;
3745;SDS011;1888;49.890;10.884;2022-08-01T04:58:53;9.50;;;9.40;;
3745;SDS011;1888;49.890;10.884;2022-08-01T05:01:34;9.50;;;9.40;;
3745;SDS011;1888;49.890;10.884;2022-08-01T05:04:02;9.50;;;9.40;;
3745;SDS011;1888;49.890;10.884;2022-08-01T05:06:31;9.77;;;9.67;;
3745;SDS011;1888;49.890;10.884;2022-08-01T05:08:58;9.17;;;9.07;;
3745;SDS011;1888;49.890;10.884;2022-08-01T05:11:25;9.27;;;9.17;;
3745;SDS011;1888;49.890;10.884;2022-08-01T05:13:52;8.77;;;8.67;;
3745;SDS011;1888;49.890;10.884;2022-08-01T05:16:19;9.27;;;9.17;;
3745;SDS011;1888;49.890;10.884;2022-08-01T05:18:46;8.90;;;8.80;;
3745;SDS011;1888;49.890;10.884;2022-08-01T05:21:13;9.40;;;9.30;;
3745;SDS011;1888;49.890;10.884;2022-08-01T05:23:42;9.00;;;8.90;;
3745;SDS011;1888;49.890;10.884;2022-08-01T05:26:09;9.40;;;9.30;;
3745;SDS011;1888;49.890;10.884;2022-08-01T05:28:39;9.80;;;9.70;;
3745;SDS011;1888;49.890;10.884;2022-08-01T05:31:06;9.73;;;9.63;;
3745;SDS011;1888;49.890;10.884;2022-08-01T05:33:33;9.20;;;9.10;;
3745;SDS011;1888;49.890;10.884;2022-08-01T05:36:00;9.90;;;9.80;;
3745;SDS011;1888;49.890;10.884;2022-08-01T05:38:27;9.57;;;9.47;;
3745;SDS011;1888;49.890;10.884;2022-08-01T05:40:56;9.87;;;9.77;;
3745;SDS011;1888;49.890;10.884;2022-08-01T05:43:24;9.77;;;9.67;;
3745;SDS011;1888;49.890;10.884;2022-08-01T05:45:51;9.70;;;9.60;;
3745;SDS011;1888;49.890;10.884;2022-08-01T05:48:18;9.70;;;9.60;;
3745;SDS011;1888;49.890;10.884;2022-08-01T05:50:45;9.70;;;9.60;;
3745;SDS011;1888;49.890;10.884;2022-08-01T05:53:13;9.87;;;9.77;;
3745;SDS011;1888;49.890;10.884;2022-08-01T05:55:40;10.40;;;10.20;;
3745;SDS011;1888;49.890;10.884;2022-08-01T05:58:11;9.90;;;9.80;;
3745;SDS011;1888;49.890;10.884;2022-08-01T06:00:38;9.67;;;9.57;;
3745;SDS011;1888;49.890;10.884;2022-08-01T06:03:05;9.80;;;9.70;;
3745;SDS011;1888;49.890;10.884;2022-08-01T06:05:32;9.80;;;9.70;;
3745;SDS011;1888;49.890;10.884;2022-08-01T06:07:59;9.87;;;9.77;;
3745;SDS011;1888;49.890;10.884;2022-08-01T06:10:26;10.47;;;10.27;;
3745;SDS011;1888;49.890;10.884;2022-08-01T06:12:53;9.87;;;9.77;;
3745;SDS011;1888;49.890;10.884;2022-08-01T06:15:22;9.70;;;9.60;;
3745;SDS011;1888;49.890;10.884;2022-08-01T06:17:49;10.30;;;10.20;;
3745;SDS011;1888;49.890;10.884;2022-08-01T06:20:16;10.50;;;10.30;;
3745;SDS011;1888;49.890;10.884;2022-08-01T06:22:43;10.40;;;10.20;;
3745;SDS011;1888;49.890;10.884;2022-08-01T06:25:10;10.30;;;10.10;;
3745;SDS011;1888;49.890;10.884;2022-08-01T06:27:37;9.63;;;9.53;;
3745;SDS011;1888;49.890;10.884;2022-08-01T06:30:05;9.90;;;9.80;;
3745;SDS011;1888;49.890;10.884;2022-08-01T06:32:35;9.80;;;9.70;;
3745;SDS011;1888;49.890;10.884;2022-08-01T06:35:02;9.60;;;9.50;;
3745;SDS011;1888;49.890;10.884;2022-08-01T06:37:30;10.40;;;10.20;;
3745;SDS011;1888;49.890;10.884;2022-08-01T06:39:59;9.97;;;9.87;;
3745;SDS011;1888;49.890;10.884;2022-08-01T06:42:27;9.90;;;9.80;;
3745;SDS011;1888;49.890;10.884;2022-08-01T06:44:56;9.93;;;9.83;;
3745;SDS011;1888;49.890;10.884;2022-08-01T06:47:23;10.53;;;10.33;;
3745;SDS011;1888;49.890;10.884;2022-08-01T06:49:52;10.23;;;10.10;;
3745;SDS011;1888;49.890;10.884;2022-08-01T06:52:19;10.43;;;10.23;;
3745;SDS011;1888;49.890;10.884;2022-08-01T06:54:46;10.70;;;10.50;;
3745;SDS011;1888;49.890;10.884;2022-08-01T06:57:13;10.13;;;10.03;;
3745;SDS011;1888;49.890;10.884;2022-08-01T06:59:41;10.50;;;10.30;;
3745;SDS011;1888;49.890;10.884;2022-08-01T07:02:08;10.73;;;10.53;;
3745;SDS011;1888;49.890;10.884;2022-08-01T07:04:35;10.70;;;10.50;;
3745;SDS011;1888;49.890;10.884;2022-08-01T07:07:04;10.90;;;10.70;;
3745;SDS011;1888;49.890;10.884;2022-08-01T07:09:31;11.30;;;11.10;;
3745;SDS011;1888;49.890;10.884;2022-08-01T07:11:58;11.10;;;10.90;;
3745;SDS011;1888;49.890;10.884;2022-08-01T07:14:26;11.50;;;11.30;;
3745;SDS011;1888;49.890;10.884;2022-08-01T07:16:53;11.77;;;11.57;;
3745;SDS011;1888;49.890;10.884;2022-08-01T07:19:20;11.70;;;11.50;;
3745;SDS011;1888;49.890;10.884;2022-08-01T07:21:47;11.67;;;11.47;;
3745;SDS011;1888;49.890;10.884;2022-08-01T07:24:16;11.90;;;11.70;;
3745;SDS011;1888;49.890;10.884;2022-08-01T07:26:44;12.00;;;11.80;;
3745;SDS011;1888;49.890;10.884;2022-08-01T07:29:11;11.50;;;11.30;;
3745;SDS011;1888;49.890;10.884;2022-08-01T07:31:38;12.03;;;11.83;;
3745;SDS011;1888;49.890;10.884;2022-08-01T07:34:06;12.13;;;11.93;;
3745;SDS011;1888;49.890;10.884;2022-08-01T07:36:33;12.53;;;12.23;;
3745;SDS011;1888;49.890;10.884;2022-08-01T07:39:00;12.70;;;12.40;;
3745;SDS011;1888;49.890;10.884;2022-08-01T07:41:29;12.47;;;12.17;;
3745;SDS011;1888;49.890;10.884;2022-08-01T07:43:56;13.00;;;12.70;;
3745;SDS011;1888;49.890;10.884;2022-08-01T07:46:23;13.00;;;12.70;;
3745;SDS011;1888;49.890;10.884;2022-08-01T07:48:50;12.73;;;12.43;;
3745;SDS011;1888;49.890;10.884;2022-08-01T07:51:17;12.90;;;12.60;;
3745;SDS011;1888;49.890;10.884;2022-08-01T07:53:45;13.20;;;12.90;;
3745;SDS011;1888;49.890;10.884;2022-08-01T07:56:12;12.97;;;12.67;;
3745;SDS011;1888;49.890;10.884;2022-08-01T07:58:40;13.30;;;13.00;;
3745;SDS011;1888;49.890;10.884;2022-08-01T08:01:09;12.90;;;12.60;;
3745;SDS011;1888;49.890;10.884;2022-08-01T08:03:36;12.73;;;12.43;;
3745;SDS011;1888;49.890;10.884;2022-08-01T08:06:04;12.77;;;12.47;;
3745;SDS011;1888;49.890;10.884;2022-08-01T08:08:31;13.00;;;12.70;;
3745;SDS011;1888;49.890;10.884;2022-08-01T08:10:59;12.93;;;12.63;;
3745;SDS011;1888;49.890;10.884;2022-08-01T08:13:26;12.87;;;12.57;;
3745;SDS011;1888;49.890;10.884;2022-08-01T08:15:58;12.90;;;12.60;;
3745;SDS011;1888;49.890;10.884;2022-08-01T08:18:27;13.20;;;12.90;;
3745;SDS011;1888;49.890;10.884;2022-08-01T08:20:54;13.10;;;12.80;;
3745;SDS011;1888;49.890;10.884;2022-08-01T08:23:21;13.50;;;13.20;;
3745;SDS011;1888;49.890;10.884;2022-08-01T08:26:06;13.30;;;13.00;;
3745;SDS011;1888;49.890;10.884;2022-08-01T08:28:33;13.13;;;12.83;;
3745;SDS011;1888;49.890;10.884;2022-08-01T08:31:02;12.83;;;12.53;;
3745;SDS011;1888;49.890;10.884;2022-08-01T08:33:29;13.60;;;13.30;;
3745;SDS011;1888;49.890;10.884;2022-08-01T08:35:56;13.50;;;13.20;;
3745;SDS011;1888;49.890;10.884;2022-08-01T08:38:24;13.43;;;13.13;;
3745;SDS011;1888;49.890;10.884;2022-08-01T08:40:52;13.20;;;12.90;;
3745;SDS011;1888;49.890;10.884;2022-08-01T08:43:22;13.30;;;13.00;;
3745;SDS011;1888;49.890;10.884;2022-08-01T08:45:49;12.90;;;12.60;;
3745;SDS011;1888;49.890;10.884;2022-08-01T08:48:18;13.50;;;13.20;;
3745;SDS011;1888;49.890;10.884;2022-08-01T08:50:45;13.10;;;12.80;;
3745;SDS011;1888;49.890;10.884;2022-08-01T08:53:14;13.43;;;13.13;;
3745;SDS011;1888;49.890;10.884;2022-08-01T08:55:42;13.63;;;13.33;;
3745;SDS011;1888;49.890;10.884;2022-08-01T08:58:09;13.50;;;13.20;;
3745;SDS011;1888;49.890;10.884;2022-08-01T09:00:37;13.70;;;13.40;;
3745;SDS011;1888;49.890;10.884;2022-08-01T09:03:05;14.20;;;13.80;;
3745;SDS011;1888;49.890;10.884;2022-08-01T09:05:33;14.03;;;13.63;;
3745;SDS011;1888;49.890;10.884;2022-08-01T09:08:00;13.77;;;13.47;;
3745;SDS011;1888;49.890;10.884;2022-08-01T09:10:30;13.70;;;13.40;;
3745;SDS011;1888;49.890;10.884;2022-08-01T09:13:07;13.67;;;13.37;;
3745;SDS011;1888;49.890;10.884;2022-08-01T09:15:39;13.37;;;13.07;;
3745;SDS011;1888;49.890;10.884;2022-08-01T09:18:08;13.03;;;12.73;;
3745;SDS011;1888;49.890;10.884;2022-08-01T09:20:38;13.70;;;13.40;;
3745;SDS011;1888;49.890;10.884;2022-08-01T09:23:05;13.80;;;13.50;;
3745;SDS011;1888;49.890;10.884;2022-08-01T09:28:15;13.73;;;13.43;;
3745;SDS011;1888;49.890;10.884;2022-08-01T09:30:42;13.60;;;13.30;;
3745;SDS011;1888;49.890;10.884;2022-08-01T09:33:10;13.57;;;13.27;;
3745;SDS011;1888;49.890;10.884;2022-08-01T09:35:38;13.70;;;13.40;;
3745;SDS011;1888;49.890;10.884;2022-08-01T09:38:13;13.53;;;13.23;;
3745;SDS011;1888;49.890;10.884;2022-08-01T09:40:44;13.70;;;13.40;;
3745;SDS011;1888;49.890;10.884;2022-08-01T09:43:11;13.57;;;13.27;;
3745;SDS011;1888;49.890;10.884;2022-08-01T09:45:39;13.47;;;13.17;;
3745;SDS011;1888;49.890;10.884;2022-08-01T09:48:07;12.93;;;12.63;;
3745;SDS011;1888;49.890;10.884;2022-08-01T09:50:40;12.60;;;12.30;;
3745;SDS011;1888;49.890;10.884;2022-08-01T09:53:07;13.40;;;13.10;;
3745;SDS011;1888;49.890;10.884;2022-08-01T09:55:36;13.50;;;13.20;;
3745;SDS011;1888;49.890;10.884;2022-08-01T09:58:04;12.70;;;12.40;;
3745;SDS011;1888;49.890;10.884;2022-08-01T10:00:34;13.57;;;13.27;;
3745;SDS011;1888;49.890;10.884;2022-08-01T10:03:17;13.60;;;13.30;;
3745;SDS011;1888;49.890;10.884;2022-08-01T10:05:47;13.03;;;12.73;;
3745;SDS011;1888;49.890;10.884;2022-08-01T10:08:15;13.07;;;12.77;;
3745;SDS011;1888;49.890;10.884;2022-08-01T10:10:44;13.70;;;13.40;;
3745;SDS011;1888;49.890;10.884;2022-08-01T10:13:31;13.47;;;13.17;;
3745;SDS011;1888;49.890;10.884;2022-08-01T10:15:59;13.40;;;13.10;;
3745;SDS011;1888;49.890;10.884;2022-08-01T10:18:29;13.47;;;13.17;;
3745;SDS011;1888;49.890;10.884;2022-08-01T10:20:59;13.70;;;13.40;;
3745;SDS011;1888;49.890;10.884;2022-08-01T10:23:27;13.50;;;13.20;;
3745;SDS011;1888;49.890;10.884;2022-08-01T10:25:58;13.23;;;12.93;;
3745;SDS011;1888;49.890;10.884;2022-08-01T10:28:25;13.20;;;12.90;;
3745;SDS011;1888;49.890;10.884;2022-08-01T10:30:53;12.90;;;12.60;;
3745;SDS011;1888;49.890;10.884;2022-08-01T10:33:23;13.40;;;13.10;;
3745;SDS011;1888;49.890;10.884;2022-08-01T10:35:51;13.80;;;13.50;;
3745;SDS011;1888;49.890;10.884;2022-08-01T10:38:20;13.40;;;13.10;;
3745;SDS011;1888;49.890;10.884;2022-08-01T10:40:48;13.40;;;13.10;;
3745;SDS011;1888;49.890;10.884;2022-08-01T10:43:17;13.77;;;13.47;;
3745;SDS011;1888;49.890;10.884;2022-08-01T10:45:44;13.93;;;13.63;;
3745;SDS011;1888;49.890;10.884;2022-08-01T10:48:12;14.00;;;13.70;;
3745;SDS011;1888;49.890;10.884;2022-08-01T10:50:41;14.10;;;13.80;;
3745;SDS011;1888;49.890;10.884;2022-08-01T10:53:11;13.90;;;13.60;;
3745;SDS011;1888;49.890;10.884;2022-08-01T10:55:46;13.60;;;13.30;;
3745;SDS011;1888;49.890;10.884;2022-08-01T10:58:13;13.30;;;13.00;;
3745;SDS011;1888;49.890;10.884;2022-08-01T11:00:46;13.80;;;13.50;;
3745;SDS011;1888;49.890;10.884;2022-08-01T11:03:13;14.00;;;13.70;;
3745;SDS011;1888;49.890;10.884;2022-08-01T11:05:40;13.60;;;13.30;;
3745;SDS011;1888;49.890;10.884;2022-08-01T11:08:09;13.63;;;13.33;;
3745;SDS011;1888;49.890;10.884;2022-08-01T11:10:37;13.77;;;13.47;;
3745;SDS011;1888;49.890;10.884;2022-08-01T11:13:06;13.60;;;13.30;;
3745;SDS011;1888;49.890;10.884;2022-08-01T11:15:33;13.60;;;13.30;;
3745;SDS011;1888;49.890;10.884;2022-08-01T11:18:03;13.33;;;13.03;;
3745;SDS011;1888;49.890;10.884;2022-08-01T11:20:56;13.70;;;13.40;;
3745;SDS011;1888;49.890;10.884;2022-08-01T11:23:23;13.70;;;13.40;;
3745;SDS011;1888;49.890;10.884;2022-08-01T11:31:31;13.30;;;13.00;;
3745;SDS011;1888;49.890;10.884;2022-08-01T11:33:59;13.67;;;13.37;;
3745;SDS011;1888;49.890;10.884;2022-08-01T11:36:35;13.87;;;13.57;;
3745;SDS011;1888;49.890;10.884;2022-08-01T11:39:18;13.40;;;13.10;;
3745;SDS011;1888;49.890;10.884;2022-08-01T11:41:46;13.67;;;13.37;;
3745;SDS011;1888;49.890;10.884;2022-08-01T11:44:18;13.00;;;12.70;;
3745;SDS011;1888;49.890;10.884;2022-08-01T11:46:51;13.60;;;13.30;;
3745;SDS011;1888;49.890;10.884;2022-08-01T11:49:27;13.70;;;13.40;;
3745;SDS011;1888;49.890;10.884;2022-08-01T11:52:00;13.33;;;13.03;;
3745;SDS011;1888;49.890;10.884;2022-08-01T11:54:28;13.27;;;12.97;;
3745;SDS011;1888;49.890;10.884;2022-08-01T11:56:56;13.50;;;13.20;;
3745;SDS011;1888;49.890;10.884;2022-08-01T11:59:35;13.47;;;13.17;;
3745;SDS011;1888;49.890;10.884;2022-08-01T12:02:02;13.60;;;13.30;;
3745;SDS011;1888;49.890;10.884;2022-08-01T12:04:43;13.70;;;13.40;;
3745;SDS011;1888;49.890;10.884;2022-08-01T12:07:12;13.80;;;13.50;;
3745;SDS011;1888;49.890;10.884;2022-08-01T12:09:41;13.60;;;13.30;;
3745;SDS011;1888;49.890;10.884;2022-08-01T12:12:08;13.37;;;13.07;;
3745;SDS011;1888;49.890;10.884;2022-08-01T12:14:35;13.47;;;13.17;;
3745;SDS011;1888;49.890;10.884;2022-08-01T12:17:03;13.33;;;13.03;;
3745;SDS011;1888;49.890;10.884;2022-08-01T12:19:30;13.90;;;13.60;;
3745;SDS011;1888;49.890;10.884;2022-08-01T12:22:07;13.27;;;12.97;;
3745;SDS011;1888;49.890;10.884;2022-08-01T12:24:36;13.20;;;12.90;;
3745;SDS011;1888;49.890;10.884;2022-08-01T12:27:06;13.20;;;12.90;;
3745;SDS011;1888;49.890;10.884;2022-08-01T12:29:34;13.00;;;12.70;;
3745;SDS011;1888;49.890;10.884;2022-08-01T12:32:02;13.30;;;13.00;;
3745;SDS011;1888;49.890;10.884;2022-08-01T12:34:31;13.50;;;13.20;;
3745;SDS011;1888;49.890;10.884;2022-08-01T12:37:00;13.33;;;13.03;;
3745;SDS011;1888;49.890;10.884;2022-08-01T12:39:29;13.90;;;13.60;;
3745;SDS011;1888;49.890;10.884;2022-08-01T12:41:59;13.43;;;13.13;;
3745;SDS011;1888;49.890;10.884;2022-08-01T12:44:27;13.13;;;12.83;;
3745;SDS011;1888;49.890;10.884;2022-08-01T12:46:55;13.37;;;13.07;;
3745;SDS011;1888;49.890;10.884;2022-08-01T12:49:22;14.30;;;13.90;;
3745;SDS011;1888;49.890;10.884;2022-08-01T12:51:50;13.90;;;13.60;;
3745;SDS011;1888;49.890;10.884;2022-08-01T12:54:17;13.43;;;13.13;;
3745;SDS011;1888;49.890;10.884;2022-08-01T12:56:47;13.77;;;13.47;;
3745;SDS011;1888;49.890;10.884;2022-08-01T12:59:20;13.70;;;13.40;;
3745;SDS011;1888;49.890;10.884;2022-08-01T13:01:50;13.50;;;13.20;;
3745;SDS011;1888;49.890;10.884;2022-08-01T13:04:51;13.40;;;13.10;;
3745;SDS011;1888;49.890;10.884;2022-08-01T13:07:20;13.37;;;13.07;;
3745;SDS011;1888;49.890;10.884;2022-08-01T13:09:49;13.63;;;13.33;;
3745;SDS011;1888;49.890;10.884;2022-08-01T13:12:16;13.73;;;13.43;;
3745;SDS011;1888;49.890;10.884;2022-08-01T13:14:43;13.70;;;13.40;;
3745;SDS011;1888;49.890;10.884;2022-08-01T13:17:10;13.20;;;12.90;;
3745;SDS011;1888;49.890;10.884;2022-08-01T13:19:41;13.50;;;13.20;;
3745;SDS011;1888;49.890;10.884;2022-08-01T13:22:11;13.77;;;13.47;;
3745;SDS011;1888;49.890;10.884;2022-08-01T13:24:40;13.90;;;13.57;;
3745;SDS011;1888;49.890;10.884;2022-08-01T13:27:07;14.10;;;13.70;;
3745;SDS011;1888;49.890;10.884;2022-08-01T13:29:48;13.50;;;13.20;;
3745;SDS011;1888;49.890;10.884;2022-08-01T13:32:18;13.57;;;13.27;;
3745;SDS011;1888;49.890;10.884;2022-08-01T13:34:46;13.87;;;13.57;;
3745;SDS011;1888;49.890;10.884;2022-08-01T13:37:14;13.50;;;13.20;;
3745;SDS011;1888;49.890;10.884;2022-08-01T13:39:43;13.50;;;13.20;;
3745;SDS011;1888;49.890;10.884;2022-08-01T13:42:13;13.90;;;13.60;;
3745;SDS011;1888;49.890;10.884;2022-08-01T13:44:40;14.10;;;13.70;;
3745;SDS011;1888;49.890;10.884;2022-08-01T13:47:08;13.40;;;13.10;;
3745;SDS011;1888;49.890;10.884;2022-08-01T13:49:36;13.87;;;13.57;;
3745;SDS011;1888;49.890;10.884;2022-08-01T13:52:04;13.63;;;13.33;;
3745;SDS011;1888;49.890;10.884;2022-08-01T13:54:36;13.60;;;13.30;;
3745;SDS011;1888;49.890;10.884;2022-08-01T13:57:03;13.63;;;13.33;;
3745;SDS011;1888;49.890;10.884;2022-08-01T13:59:31;13.73;;;13.43;;
3745;SDS011;1888;49.890;10.884;2022-08-01T14:01:58;13.67;;;13.37;;
3745;SDS011;1888;49.890;10.884;2022-08-01T14:04:26;13.80;;;13.50;;
3745;SDS011;1888;49.890;10.884;2022-08-01T14:06:53;13.93;;;13.63;;
3745;SDS011;1888;49.890;10.884;2022-08-01T14:09:21;14.00;;;13.70;;
3745;SDS011;1888;49.890;10.884;2022-08-01T14:11:50;13.53;;;13.23;;
3745;SDS011;1888;49.890;10.884;2022-08-01T14:14:21;13.77;;;13.47;;
3745;SDS011;1888;49.890;10.884;2022-08-01T14:16:49;13.53;;;13.23;;
3745;SDS011;1888;49.890;10.884;2022-08-01T14:19:17;13.77;;;13.47;;
3745;SDS011;1888;49.890;10.884;2022-08-01T14:21:44;13.43;;;13.13;;
3745;SDS011;1888;49.890;10.884;2022-08-01T14:24:11;13.60;;;13.30;;
3745;SDS011;1888;49.890;10.884;2022-08-01T14:26:41;13.80;;;13.50;;
3745;SDS011;1888;49.890;10.884;2022-08-01T14:29:09;13.70;;;13.40;;
3745;SDS011;1888;49.890;10.884;2022-08-01T14:31:36;13.90;;;13.60;;
3745;SDS011;1888;49.890;10.884;2022-08-01T14:34:03;13.80;;;13.50;;
3745;SDS011;1888;49.890;10.884;2022-08-01T14:36:31;13.60;;;13.30;;
3745;SDS011;1888;49.890;10.884;2022-08-01T14:38:59;13.63;;;13.33;;
3745;SDS011;1888;49.890;10.884;2022-08-01T14:41:26;14.07;;;13.67;;
3745;SDS011;1888;49.890;10.884;2022-08-01T14:43:54;13.67;;;13.37;;
3745;SDS011;1888;49.890;10.884;2022-08-01T14:46:28;13.80;;;13.50;;
3745;SDS011;1888;49.890;10.884;2022-08-01T14:48:55;13.33;;;13.03;;
3745;SDS011;1888;49.890;10.884;2022-08-01T14:51:22;13.73;;;13.43;;
3745;SDS011;1888;49.890;10.884;2022-08-01T14:53:58;13.93;;;13.63;;
3745;SDS011;1888;49.890;10.884;2022-08-01T14:56:25;13.93;;;13.63;;
3745;SDS011;1888;49.890;10.884;2022-08-01T14:58:52;14.03;;;13.73;;
3745;SDS011;1888;49.890;10.884;2022-08-01T15:01:19;13.67;;;13.37;;
3745;SDS011;1888;49.890;10.884;2022-08-01T15:03:48;14.00;;;13.60;;
3745;SDS011;1888;49.890;10.884;2022-08-01T15:06:15;14.00;;;13.60;;
3745;SDS011;1888;49.890;10.884;2022-08-01T15:08:42;13.90;;;13.60;;
3745;SDS011;1888;49.890;10.884;2022-08-01T15:11:11;14.30;;;13.90;;
3745;SDS011;1888;49.890;10.884;2022-08-01T15:13:38;14.20;;;13.80;;
3745;SDS011;1888;49.890;10.884;2022-08-01T15:16:06;14.70;;;14.30;;
3745;SDS011;1888;49.890;10.884;2022-08-01T15:18:33;13.70;;;13.40;;
3745;SDS011;1888;49.890;10.884;2022-08-01T15:21:07;13.97;;;13.67;;
3745;SDS011;1888;49.890;10.884;2022-08-01T15:23:34;13.90;;;13.60;;
3745;SDS011;1888;49.890;10.884;2022-08-01T15:26:01;14.20;;;13.80;;
3745;SDS011;1888;49.890;10.884;2022-08-01T15:28:34;14.23;;;13.83;;
3745;SDS011;1888;49.890;10.884;2022-08-01T15:31:01;14.37;;;13.97;;
3745;SDS011;1888;49.890;10.884;2022-08-01T15:33:29;14.20;;;13.80;;
3745;SDS011;1888;49.890;10.884;2022-08-01T15:35:56;13.70;;;13.40;;
3745;SDS011;1888;49.890;10.884;2022-08-01T15:38:25;13.80;;;13.50;;
3745;SDS011;1888;49.890;10.884;2022-08-01T15:40:52;14.23;;;13.83;;
3745;SDS011;1888;49.890;10.884;2022-08-01T15:43:19;14.10;;;13.70;;
3745;SDS011;1888;49.890;10.884;2022-08-01T15:45:47;14.43;;;14.03;;
3745;SDS011;1888;49.890;10.884;2022-08-01T15:48:15;13.90;;;13.60;;
3745;SDS011;1888;49.890;10.884;2022-08-01T15:50:45;14.20;;;13.80;;
3745;SDS011;1888;49.890;10.884;2022-08-01T15:53:12;13.60;;;13.30;;
3745;SDS011;1888;49.890;10.884;2022-08-01T15:55:40;13.97;;;13.67;;
3745;SDS011;1888;49.890;10.884;2022-08-01T15:58:13;14.20;;;13.80;;
3745;SDS011;1888;49.890;10.884;2022-08-01T16:00:41;13.77;;;13.47;;
3745;SDS011;1888;49.890;10.884;2022-08-01T16:03:08;14.40;;;14.00;;
3745;SDS011;1888;49.890;10.884;2022-08-01T16:05:36;14.30;;;13.90;;
3745;SDS011;1888;49.890;10.884;2022-08-01T16:08:06;13.90;;;13.60;;
3745;SDS011;1888;49.890;10.884;2022-08-01T16:10:34;13.77;;;13.47;;
3745;SDS011;1888;49.890;10.884;2022-08-01T16:13:06;14.07;;;13.73;;
3745;SDS011;1888;49.890;10.884;2022-08-01T16:15:34;14.33;;;13.93;;
3745;SDS011;1888;49.890;10.884;2022-08-01T16:18:01;14.10;;;13.70;;
3745;SDS011;1888;49.890;10.884;2022-08-01T16:20:28;14.00;;;13.70;;
3745;SDS011;1888;49.890;10.884;2022-08-01T16:22:56;13.70;;;13.40;;
3745;SDS011;1888;49.890;10.884;2022-08-01T16:25:23;14.20;;;13.80;;
3745;SDS011;1888;49.890;10.884;2022-08-01T16:27:53;13.73;;;13.43;;
3745;SDS011;1888;49.890;10.884;2022-08-01T16:30:21;13.40;;;13.10;;
3745;SDS011;1888;49.890;10.884;2022-08-01T16:32:49;13.80;;;13.50;;
3745;SDS011;1888;49.890;10.884;2022-08-01T16:35:16;13.83;;;13.53;;
3745;SDS011;1888;49.890;10.884;2022-08-01T16:37:44;13.90;;;13.60;;
3745;SDS011;1888;49.890;10.884;2022-08-01T16:40:11;13.70;;;13.40;;
3745;SDS011;1888;49.890;10.884;2022-08-01T16:42:40;13.40;;;13.10;;
3745;SDS011;1888;49.890;10.884;2022-08-01T16:45:08;13.43;;;13.13;;
3745;SDS011;1888;49.890;10.884;2022-08-01T16:47:39;13.70;;;13.40;;
3745;SDS011;1888;49.890;10.884;2022-08-01T16:50:09;13.50;;;13.20;;
3745;SDS011;1888;49.890;10.884;2022-08-01T16:52:36;14.07;;;13.73;;
3745;SDS011;1888;49.890;10.884;2022-08-01T16:55:04;13.70;;;13.40;;
3745;SDS011;1888;49.890;10.884;2022-08-01T16:57:33;14.03;;;13.73;;
3745;SDS011;1888;49.890;10.884;2022-08-01T17:00:03;14.00;;;13.70;;
3745;SDS011;1888;49.890;10.884;2022-08-01T17:02:34;14.00;;;13.70;;
3745;SDS011;1888;49.890;10.884;2022-08-01T17:05:02;13.90;;;13.60;;
3745;SDS011;1888;49.890;10.884;2022-08-01T17:07:30;13.90;;;13.60;;
3745;SDS011;1888;49.890;10.884;2022-08-01T17:09:57;13.47;;;13.17;;
3745;SDS011;1888;49.890;10.884;2022-08-01T17:12:26;13.80;;;13.50;;
3745;SDS011;1888;49.890;10.884;2022-08-01T17:14:53;13.90;;;13.60;;
3745;SDS011;1888;49.890;10.884;2022-08-01T17:17:20;13.47;;;13.17;;
3745;SDS011;1888;49.890;10.884;2022-08-01T17:19:48;13.50;;;13.20;;
3745;SDS011;1888;49.890;10.884;2022-08-01T17:22:18;13.47;;;13.17;;
3745;SDS011;1888;49.890;10.884;2022-08-01T17:24:47;13.27;;;12.97;;
3745;SDS011;1888;49.890;10.884;2022-08-01T17:27:15;13.70;;;13.40;;
3745;SDS011;1888;49.890;10.884;2022-08-01T17:29:42;14.07;;;13.77;;
3745;SDS011;1888;49.890;10.884;2022-08-01T17:32:09;13.83;;;13.53;;
3745;SDS011;1888;49.890;10.884;2022-08-01T17:34:36;13.83;;;13.53;;
3745;SDS011;1888;49.890;10.884;2022-08-01T17:37:04;13.93;;;13.63;;
3745;SDS011;1888;49.890;10.884;2022-08-01T17:39:37;13.83;;;13.53;;
3745;SDS011;1888;49.890;10.884;2022-08-01T17:42:04;13.77;;;13.47;;
3745;SDS011;1888;49.890;10.884;2022-08-01T17:44:32;13.53;;;13.23;;
3745;SDS011;1888;49.890;10.884;2022-08-01T17:46:59;13.70;;;13.40;;
3745;SDS011;1888;49.890;10.884;2022-08-01T17:49:27;13.67;;;13.37;;
3745;SDS011;1888;49.890;10.884;2022-08-01T17:51:56;13.20;;;12.90;;
3745;SDS011;1888;49.890;10.884;2022-08-01T17:54:25;13.53;;;13.23;;
3745;SDS011;1888;49.890;10.884;2022-08-01T17:56:53;13.80;;;13.50;;
3745;SDS011;1888;49.890;10.884;2022-08-01T17:59:20;13.40;;;13.10;;
3745;SDS011;1888;49.890;10.884;2022-08-01T18:01:48;13.77;;;13.47;;
3745;SDS011;1888;49.890;10.884;2022-08-01T18:04:15;13.47;;;13.17;;
3745;SDS011;1888;49.890;10.884;2022-08-01T18:06:42;13.70;;;13.40;;
3745;SDS011;1888;49.890;10.884;2022-08-01T18:09:10;13.60;;;13.30;;
3745;SDS011;1888;49.890;10.884;2022-08-01T18:11:37;13.23;;;12.93;;
3745;SDS011;1888;49.890;10.884;2022-08-01T18:14:08;13.90;;;13.60;;
3745;SDS011;1888;49.890;10.884;2022-08-01T18:16:38;13.10;;;12.80;;
3745;SDS011;1888;49.890;10.884;2022-08-01T18:19:05;13.33;;;13.03;;
3745;SDS011;1888;49.890;10.884;2022-08-01T18:21:33;13.70;;;13.40;;
3745;SDS011;1888;49.890;10.884;2022-08-01T18:24:00;13.70;;;13.40;;
3745;SDS011;1888;49.890;10.884;2022-08-01T18:26:27;13.67;;;13.37;;
3745;SDS011;1888;49.890;10.884;2022-08-01T18:28:55;13.40;;;13.10;;
3745;SDS011;1888;49.890;10.884;2022-08-01T18:31:23;13.67;;;13.37;;
3745;SDS011;1888;49.890;10.884;2022-08-01T18:33:50;13.40;;;13.10;;
3745;SDS011;1888;49.890;10.884;2022-08-01T18:36:17;13.33;;;13.03;;
3745;SDS011;1888;49.890;10.884;2022-08-01T18:38:44;13.57;;;13.27;;
3745;SDS011;1888;49.890;10.884;2022-08-01T18:41:13;13.57;;;13.27;;
3745;SDS011;1888;49.890;10.884;2022-08-01T18:43:40;13.60;;;13.30;;
3745;SDS011;1888;49.890;10.884;2022-08-01T18:46:07;13.30;;;13.00;;
3745;SDS011;1888;49.890;10.884;2022-08-01T18:48:36;13.40;;;13.10;;
3745;SDS011;1888;49.890;10.884;2022-08-01T18:51:03;13.47;;;13.17;;
3745;SDS011;1888;49.890;10.884;2022-08-01T18:53:33;13.23;;;12.93;;
3745;SDS011;1888;49.890;10.884;2022-08-01T18:56:01;13.10;;;12.80;;
3745;SDS011;1888;49.890;10.884;2022-08-01T18:58:35;13.20;;;12.90;;
3745;SDS011;1888;49.890;10.884;2022-08-01T19:01:03;13.40;;;13.10;;
3745;SDS011;1888;49.890;10.884;2022-08-01T19:03:30;13.00;;;12.70;;
3745;SDS011;1888;49.890;10.884;2022-08-01T19:05:59;13.17;;;12.87;;
3745;SDS011;1888;49.890;10.884;2022-08-01T19:08:26;13.40;;;13.10;;
3745;SDS011;1888;49.890;10.884;2022-08-01T19:10:53;13.40;;;13.10;;